sensor_id;sensor_type;location;lat;lon;timestamp;P1;durP1;ratioP1;P2;durP2;ratioP2
17214;SDS011;8723;51.502;6.918;2023-06-26T00:01:35;6.70;;;6.10;;
17214;SDS011;8723;51.502;6.918;2023-06-26T00:04:02;7.15;;;6.50;;
17214;SDS011;8723;51.502;6.918;2023-06-26T00:06:28;7.15;;;6.45;;
17214;SDS011;8723;51.502;6.918;2023-06-26T00:08:55;6.78;;;6.28;;
17214;SDS011;8723;51.502;6.918;2023-06-26T00:11:23;6.90;;;6.30;;
17214;SDS011;8723;51.502;6.918;2023-06-26T00:13:52;7.40;;;6.40;;
17214;SDS011;8723;51.502;6.918;2023-06-26T00:16:20;6.53;;;5.95;;
17214;SDS011;8723;51.502;6.918;2023-06-26T00:18:47;6.78;;;6.28;;
17214;SDS011;8723;51.502;6.918;2023-06-26T00:21:14;6.83;;;6.23;;
17214;SDS011;8723;51.502;6.918;2023-06-26T00:23:41;6.97;;;6.38;;
17214;SDS011;8723;51.502;6.918;2023-06-26T00:26:07;6.70;;;6.10;;
17214;SDS011;8723;51.502;6.918;2023-06-26T00:28:35;6.68;;;6.10;;
17214;SDS011;8723;51.502;6.918;2023-06-26T00:31:02;7.10;;;6.40;;
17214;SDS011;8723;51.502;6.918;2023-06-26T00:33:31;7.10;;;6.15;;
17214;SDS011;8723;51.502;6.918;2023-06-26T00:35:57;6.78;;;6.18;;
17214;SDS011;8723;51.502;6.918;2023-06-26T00:38:25;6.70;;;6.10;;
17214;SDS011;8723;51.502;6.918;2023-06-26T00:40:51;6.50;;;6.00;;
17214;SDS011;8723;51.502;6.918;2023-06-26T00:43:19;6.85;;;6.25;;
17214;SDS011;8723;51.502;6.918;2023-06-26T00:45:46;6.90;;;6.30;;
17214;SDS011;8723;51.502;6.918;2023-06-26T00:48:13;7.03;;;6.43;;
17214;SDS011;8723;51.502;6.918;2023-06-26T00:50:41;7.20;;;6.60;;
17214;SDS011;8723;51.502;6.918;2023-06-26T00:53:09;7.07;;;6.47;;
17214;SDS011;8723;51.502;6.918;2023-06-26T00:55:37;6.85;;;6.25;;
17214;SDS011;8723;51.502;6.918;2023-06-26T00:58:03;6.90;;;6.40;;
17214;SDS011;8723;51.502;6.918;2023-06-26T01:00:31;7.22;;;6.63;;
17214;SDS011;8723;51.502;6.918;2023-06-26T01:02:58;6.97;;;6.30;;
17214;SDS011;8723;51.502;6.918;2023-06-26T01:05:25;6.93;;;6.22;;
17214;SDS011;8723;51.502;6.918;2023-06-26T01:07:54;7.38;;;6.78;;
17214;SDS011;8723;51.502;6.918;2023-06-26T01:10:21;7.30;;;6.55;;
17214;SDS011;8723;51.502;6.918;2023-06-26T01:12:52;7.15;;;6.55;;
17214;SDS011;8723;51.502;6.918;2023-06-26T01:15:19;7.38;;;6.78;;
17214;SDS011;8723;51.502;6.918;2023-06-26T01:17:46;6.68;;;6.10;;
17214;SDS011;8723;51.502;6.918;2023-06-26T01:20:13;7.23;;;6.53;;
17214;SDS011;8723;51.502;6.918;2023-06-26T01:22:43;7.40;;;6.70;;
17214;SDS011;8723;51.502;6.918;2023-06-26T01:25:17;6.83;;;6.23;;
17214;SDS011;8723;51.502;6.918;2023-06-26T01:27:51;6.97;;;6.30;;
17214;SDS011;8723;51.502;6.918;2023-06-26T01:30:20;6.78;;;6.18;;
17214;SDS011;8723;51.502;6.918;2023-06-26T01:32:47;7.47;;;6.88;;
17214;SDS011;8723;51.502;6.918;2023-06-26T01:35:16;7.40;;;6.70;;
17214;SDS011;8723;51.502;6.918;2023-06-26T01:37:43;7.40;;;6.55;;
17214;SDS011;8723;51.502;6.918;2023-06-26T01:40:10;7.00;;;6.40;;
17214;SDS011;8723;51.502;6.918;2023-06-26T01:42:38;6.90;;;6.30;;
17214;SDS011;8723;51.502;6.918;2023-06-26T01:45:12;7.15;;;6.55;;
17214;SDS011;8723;51.502;6.918;2023-06-26T01:47:46;7.97;;;6.53;;
17214;SDS011;8723;51.502;6.918;2023-06-26T01:50:20;7.47;;;6.75;;
17214;SDS011;8723;51.502;6.918;2023-06-26T01:52:54;7.28;;;6.65;;
17214;SDS011;8723;51.502;6.918;2023-06-26T01:55:32;7.00;;;6.30;;
17214;SDS011;8723;51.502;6.918;2023-06-26T01:58:06;6.72;;;6.13;;
17214;SDS011;8723;51.502;6.918;2023-06-26T02:00:38;6.63;;;6.10;;
17214;SDS011;8723;51.502;6.918;2023-06-26T02:03:10;7.30;;;6.60;;
17214;SDS011;8723;51.502;6.918;2023-06-26T02:05:39;7.53;;;6.82;;
17214;SDS011;8723;51.502;6.918;2023-06-26T02:08:08;7.17;;;6.47;;
17214;SDS011;8723;51.502;6.918;2023-06-26T02:10:36;8.05;;;7.05;;
17214;SDS011;8723;51.502;6.918;2023-06-26T02:13:03;7.07;;;6.47;;
17214;SDS011;8723;51.502;6.918;2023-06-26T02:15:30;7.20;;;6.57;;
17214;SDS011;8723;51.502;6.918;2023-06-26T02:17:58;7.53;;;6.78;;
17214;SDS011;8723;51.502;6.918;2023-06-26T02:20:25;7.10;;;6.50;;
17214;SDS011;8723;51.502;6.918;2023-06-26T02:22:55;7.23;;;6.53;;
17214;SDS011;8723;51.502;6.918;2023-06-26T02:25:24;7.30;;;6.68;;
17214;SDS011;8723;51.502;6.918;2023-06-26T02:27:54;7.13;;;6.43;;
17214;SDS011;8723;51.502;6.918;2023-06-26T02:30:23;7.00;;;6.30;;
17214;SDS011;8723;51.502;6.918;2023-06-26T02:32:50;6.95;;;6.25;;
17214;SDS011;8723;51.502;6.918;2023-06-26T02:35:21;7.00;;;6.40;;
17214;SDS011;8723;51.502;6.918;2023-06-26T02:37:48;6.88;;;6.20;;
17214;SDS011;8723;51.502;6.918;2023-06-26T02:40:18;6.95;;;6.35;;
17214;SDS011;8723;51.502;6.918;2023-06-26T02:42:47;6.93;;;6.30;;
17214;SDS011;8723;51.502;6.918;2023-06-26T02:45:14;7.20;;;6.57;;
17214;SDS011;8723;51.502;6.918;2023-06-26T02:47:40;6.60;;;6.07;;
17214;SDS011;8723;51.502;6.918;2023-06-26T02:50:07;6.68;;;6.10;;
17214;SDS011;8723;51.502;6.918;2023-06-26T02:52:36;7.35;;;6.10;;
17214;SDS011;8723;51.502;6.918;2023-06-26T02:55:04;6.75;;;6.03;;
17214;SDS011;8723;51.502;6.918;2023-06-26T02:57:31;7.03;;;6.43;;
17214;SDS011;8723;51.502;6.918;2023-06-26T02:59:58;6.78;;;6.18;;
17214;SDS011;8723;51.502;6.918;2023-06-26T03:02:25;6.75;;;6.10;;
17214;SDS011;8723;51.502;6.918;2023-06-26T03:04:54;6.50;;;5.90;;
17214;SDS011;8723;51.502;6.918;2023-06-26T03:07:23;6.32;;;5.82;;
17214;SDS011;8723;51.502;6.918;2023-06-26T03:09:54;6.80;;;6.10;;
17214;SDS011;8723;51.502;6.918;2023-06-26T03:12:23;6.50;;;5.90;;
17214;SDS011;8723;51.502;6.918;2023-06-26T03:14:52;6.93;;;6.32;;
17214;SDS011;8723;51.502;6.918;2023-06-26T03:17:19;6.90;;;6.30;;
17214;SDS011;8723;51.502;6.918;2023-06-26T03:19:46;6.65;;;5.95;;
17214;SDS011;8723;51.502;6.918;2023-06-26T03:22:13;6.63;;;6.10;;
17214;SDS011;8723;51.502;6.918;2023-06-26T03:24:40;7.23;;;6.53;;
17214;SDS011;8723;51.502;6.918;2023-06-26T03:27:08;6.45;;;5.85;;
17214;SDS011;8723;51.502;6.918;2023-06-26T03:29:35;6.88;;;6.20;;
17214;SDS011;8723;51.502;6.918;2023-06-26T03:32:02;6.63;;;6.13;;
17214;SDS011;8723;51.502;6.918;2023-06-26T03:34:29;7.20;;;6.47;;
17214;SDS011;8723;51.502;6.918;2023-06-26T03:36:56;7.15;;;6.55;;
17214;SDS011;8723;51.502;6.918;2023-06-26T03:39:23;7.10;;;6.40;;
17214;SDS011;8723;51.502;6.918;2023-06-26T03:41:49;7.75;;;6.40;;
17214;SDS011;8723;51.502;6.918;2023-06-26T03:44:19;8.20;;;7.50;;
17214;SDS011;8723;51.502;6.918;2023-06-26T03:46:46;7.82;;;7.07;;
17214;SDS011;8723;51.502;6.918;2023-06-26T03:49:13;7.00;;;6.40;;
17214;SDS011;8723;51.502;6.918;2023-06-26T03:51:40;7.82;;;7.13;;
17214;SDS011;8723;51.502;6.918;2023-06-26T03:54:06;7.72;;;6.85;;
17214;SDS011;8723;51.502;6.918;2023-06-26T03:56:33;8.20;;;6.47;;
17214;SDS011;8723;51.502;6.918;2023-06-26T03:59:00;7.70;;;6.30;;
17214;SDS011;8723;51.502;6.918;2023-06-26T04:01:28;8.88;;;6.53;;
17214;SDS011;8723;51.502;6.918;2023-06-26T04:03:55;6.65;;;6.05;;
17214;SDS011;8723;51.502;6.918;2023-06-26T04:06:22;6.50;;;5.90;;
17214;SDS011;8723;51.502;6.918;2023-06-26T04:08:48;7.07;;;6.10;;
17214;SDS011;8723;51.502;6.918;2023-06-26T04:11:15;6.82;;;6.13;;
17214;SDS011;8723;51.502;6.918;2023-06-26T04:13:42;7.53;;;6.00;;
17214;SDS011;8723;51.502;6.918;2023-06-26T04:16:09;6.57;;;5.97;;
17214;SDS011;8723;51.502;6.918;2023-06-26T04:18:38;7.40;;;6.70;;
17214;SDS011;8723;51.502;6.918;2023-06-26T04:21:05;7.63;;;6.93;;
17214;SDS011;8723;51.502;6.918;2023-06-26T04:23:33;6.70;;;6.00;;
17214;SDS011;8723;51.502;6.918;2023-06-26T04:26:01;7.97;;;6.80;;
17214;SDS011;8723;51.502;6.918;2023-06-26T04:28:29;8.63;;;7.23;;
17214;SDS011;8723;51.502;6.918;2023-06-26T04:30:56;8.45;;;7.38;;
17214;SDS011;8723;51.502;6.918;2023-06-26T04:33:23;7.50;;;6.80;;
17214;SDS011;8723;51.502;6.918;2023-06-26T04:35:52;6.95;;;6.35;;
17214;SDS011;8723;51.502;6.918;2023-06-26T04:38:19;7.72;;;6.63;;
17214;SDS011;8723;51.502;6.918;2023-06-26T04:40:46;7.00;;;6.30;;
17214;SDS011;8723;51.502;6.918;2023-06-26T04:43:13;7.07;;;6.38;;
17214;SDS011;8723;51.502;6.918;2023-06-26T04:45:40;6.85;;;6.25;;
17214;SDS011;8723;51.502;6.918;2023-06-26T04:48:07;7.38;;;6.60;;
17214;SDS011;8723;51.502;6.918;2023-06-26T04:50:34;6.72;;;5.75;;
17214;SDS011;8723;51.502;6.918;2023-06-26T04:53:02;6.20;;;5.60;;
17214;SDS011;8723;51.502;6.918;2023-06-26T04:55:29;6.78;;;5.47;;
17214;SDS011;8723;51.502;6.918;2023-06-26T04:57:56;6.72;;;5.57;;
17214;SDS011;8723;51.502;6.918;2023-06-26T05:00:22;7.50;;;5.47;;
17214;SDS011;8723;51.502;6.918;2023-06-26T05:02:50;5.82;;;5.30;;
17214;SDS011;8723;51.502;6.918;2023-06-26T05:05:24;5.95;;;5.35;;
17214;SDS011;8723;51.502;6.918;2023-06-26T05:07:52;6.40;;;5.68;;
17214;SDS011;8723;51.502;6.918;2023-06-26T05:10:21;7.10;;;5.40;;
17214;SDS011;8723;51.502;6.918;2023-06-26T05:12:48;6.78;;;5.20;;
17214;SDS011;8723;51.502;6.918;2023-06-26T05:15:15;8.90;;;5.25;;
17214;SDS011;8723;51.502;6.918;2023-06-26T05:17:41;5.70;;;4.85;;
17214;SDS011;8723;51.502;6.918;2023-06-26T05:20:10;7.10;;;5.00;;
17214;SDS011;8723;51.502;6.918;2023-06-26T05:22:37;6.10;;;5.18;;
17214;SDS011;8723;51.502;6.918;2023-06-26T05:25:05;5.47;;;4.97;;
17214;SDS011;8723;51.502;6.918;2023-06-26T05:27:36;6.68;;;5.72;;
17214;SDS011;8723;51.502;6.918;2023-06-26T05:30:04;6.60;;;5.80;;
17214;SDS011;8723;51.502;6.918;2023-06-26T05:32:32;8.52;;;5.65;;
17214;SDS011;8723;51.502;6.918;2023-06-26T05:35:01;8.30;;;6.18;;
17214;SDS011;8723;51.502;6.918;2023-06-26T05:37:29;8.40;;;5.60;;
17214;SDS011;8723;51.502;6.918;2023-06-26T05:39:57;6.72;;;5.13;;
17214;SDS011;8723;51.502;6.918;2023-06-26T05:42:25;7.15;;;5.63;;
17214;SDS011;8723;51.502;6.918;2023-06-26T05:44:54;6.82;;;5.43;;
17214;SDS011;8723;51.502;6.918;2023-06-26T05:47:21;7.53;;;5.50;;
17214;SDS011;8723;51.502;6.918;2023-06-26T05:49:48;6.05;;;5.45;;
17214;SDS011;8723;51.502;6.918;2023-06-26T05:52:14;7.80;;;5.85;;
17214;SDS011;8723;51.502;6.918;2023-06-26T05:54:42;9.07;;;5.53;;
17214;SDS011;8723;51.502;6.918;2023-06-26T05:57:09;6.40;;;5.50;;
17214;SDS011;8723;51.502;6.918;2023-06-26T05:59:39;8.52;;;5.47;;
17214;SDS011;8723;51.502;6.918;2023-06-26T06:02:08;8.38;;;5.95;;
17214;SDS011;8723;51.502;6.918;2023-06-26T06:04:35;8.40;;;5.78;;
17214;SDS011;8723;51.502;6.918;2023-06-26T06:07:02;10.07;;;6.00;;
17214;SDS011;8723;51.502;6.918;2023-06-26T06:09:30;7.70;;;5.68;;
17214;SDS011;8723;51.502;6.918;2023-06-26T06:11:56;7.50;;;5.43;;
17214;SDS011;8723;51.502;6.918;2023-06-26T06:14:24;6.80;;;5.50;;
17214;SDS011;8723;51.502;6.918;2023-06-26T06:16:51;6.97;;;4.95;;
17214;SDS011;8723;51.502;6.918;2023-06-26T06:19:19;7.68;;;5.50;;
17214;SDS011;8723;51.502;6.918;2023-06-26T06:21:46;6.93;;;5.22;;
17214;SDS011;8723;51.502;6.918;2023-06-26T06:24:13;8.82;;;5.40;;
17214;SDS011;8723;51.502;6.918;2023-06-26T06:26:39;7.40;;;5.28;;
17214;SDS011;8723;51.502;6.918;2023-06-26T06:29:06;7.30;;;5.03;;
17214;SDS011;8723;51.502;6.918;2023-06-26T06:31:33;6.25;;;5.03;;
17214;SDS011;8723;51.502;6.918;2023-06-26T06:34:00;9.85;;;5.40;;
17214;SDS011;8723;51.502;6.918;2023-06-26T06:36:28;8.77;;;5.30;;
17214;SDS011;8723;51.502;6.918;2023-06-26T06:38:56;8.75;;;5.60;;
17214;SDS011;8723;51.502;6.918;2023-06-26T06:41:22;7.65;;;5.70;;
17214;SDS011;8723;51.502;6.918;2023-06-26T06:43:49;8.60;;;5.82;;
17214;SDS011;8723;51.502;6.918;2023-06-26T06:46:16;7.55;;;5.63;;
17214;SDS011;8723;51.502;6.918;2023-06-26T06:48:43;6.82;;;5.60;;
17214;SDS011;8723;51.502;6.918;2023-06-26T06:51:11;7.93;;;5.63;;
17214;SDS011;8723;51.502;6.918;2023-06-26T06:53:39;8.20;;;5.57;;
17214;SDS011;8723;51.502;6.918;2023-06-26T06:56:06;8.65;;;5.28;;
17214;SDS011;8723;51.502;6.918;2023-06-26T06:58:33;6.65;;;5.10;;
17214;SDS011;8723;51.502;6.918;2023-06-26T07:01:01;8.38;;;5.28;;
17214;SDS011;8723;51.502;6.918;2023-06-26T07:03:29;7.78;;;5.30;;
17214;SDS011;8723;51.502;6.918;2023-06-26T07:05:56;9.45;;;5.70;;
17214;SDS011;8723;51.502;6.918;2023-06-26T07:08:22;7.32;;;5.70;;
17214;SDS011;8723;51.502;6.918;2023-06-26T07:10:50;8.93;;;5.30;;
17214;SDS011;8723;51.502;6.918;2023-06-26T07:13:17;9.73;;;6.00;;
17214;SDS011;8723;51.502;6.918;2023-06-26T07:15:45;9.85;;;5.95;;
17214;SDS011;8723;51.502;6.918;2023-06-26T07:18:12;8.48;;;5.80;;
17214;SDS011;8723;51.502;6.918;2023-06-26T07:20:39;9.20;;;6.53;;
17214;SDS011;8723;51.502;6.918;2023-06-26T07:23:07;8.85;;;6.10;;
17214;SDS011;8723;51.502;6.918;2023-06-26T07:25:34;9.98;;;6.65;;
17214;SDS011;8723;51.502;6.918;2023-06-26T07:28:02;8.85;;;6.07;;
17214;SDS011;8723;51.502;6.918;2023-06-26T07:30:29;9.40;;;5.80;;
17214;SDS011;8723;51.502;6.918;2023-06-26T07:32:56;9.18;;;6.47;;
17214;SDS011;8723;51.502;6.918;2023-06-26T07:35:23;8.52;;;5.80;;
17214;SDS011;8723;51.502;6.918;2023-06-26T07:37:52;6.93;;;5.60;;
17214;SDS011;8723;51.502;6.918;2023-06-26T07:40:19;8.57;;;6.17;;
17214;SDS011;8723;51.502;6.918;2023-06-26T07:42:46;9.43;;;7.28;;
17214;SDS011;8723;51.502;6.918;2023-06-26T07:45:14;8.50;;;6.40;;
17214;SDS011;8723;51.502;6.918;2023-06-26T07:47:41;9.48;;;6.35;;
17214;SDS011;8723;51.502;6.918;2023-06-26T07:50:08;8.83;;;6.30;;
17214;SDS011;8723;51.502;6.918;2023-06-26T07:52:35;9.63;;;7.05;;
17214;SDS011;8723;51.502;6.918;2023-06-26T07:55:02;11.60;;;9.65;;
17214;SDS011;8723;51.502;6.918;2023-06-26T07:57:29;14.80;;;13.20;;
17214;SDS011;8723;51.502;6.918;2023-06-26T07:59:57;11.40;;;9.73;;
17214;SDS011;8723;51.502;6.918;2023-06-26T08:02:25;9.07;;;6.95;;
17214;SDS011;8723;51.502;6.918;2023-06-26T08:04:52;9.18;;;7.07;;
17214;SDS011;8723;51.502;6.918;2023-06-26T08:07:19;9.23;;;7.23;;
17214;SDS011;8723;51.502;6.918;2023-06-26T08:09:45;17.17;;;9.85;;
17214;SDS011;8723;51.502;6.918;2023-06-26T08:12:12;10.95;;;6.70;;
17214;SDS011;8723;51.502;6.918;2023-06-26T08:14:39;7.85;;;6.45;;
17214;SDS011;8723;51.502;6.918;2023-06-26T08:17:06;10.43;;;7.28;;
17214;SDS011;8723;51.502;6.918;2023-06-26T08:19:34;8.20;;;5.93;;
17214;SDS011;8723;51.502;6.918;2023-06-26T08:22:01;9.93;;;5.95;;
17214;SDS011;8723;51.502;6.918;2023-06-26T08:24:28;12.10;;;6.50;;
17214;SDS011;8723;51.502;6.918;2023-06-26T08:26:55;7.85;;;5.00;;
17214;SDS011;8723;51.502;6.918;2023-06-26T08:29:21;8.23;;;5.53;;
17214;SDS011;8723;51.502;6.918;2023-06-26T08:31:48;8.18;;;5.07;;
17214;SDS011;8723;51.502;6.918;2023-06-26T08:34:15;8.77;;;5.03;;
17214;SDS011;8723;51.502;6.918;2023-06-26T08:36:43;7.57;;;5.03;;
17214;SDS011;8723;51.502;6.918;2023-06-26T08:39:10;6.68;;;4.47;;
17214;SDS011;8723;51.502;6.918;2023-06-26T08:41:37;6.95;;;4.45;;
17214;SDS011;8723;51.502;6.918;2023-06-26T08:44:04;6.90;;;4.25;;
17214;SDS011;8723;51.502;6.918;2023-06-26T08:46:31;6.93;;;4.38;;
17214;SDS011;8723;51.502;6.918;2023-06-26T08:49:00;6.28;;;4.40;;
17214;SDS011;8723;51.502;6.918;2023-06-26T08:51:30;9.30;;;4.97;;
17214;SDS011;8723;51.502;6.918;2023-06-26T08:54:01;5.95;;;4.38;;
17214;SDS011;8723;51.502;6.918;2023-06-26T08:56:35;8.05;;;4.63;;
17214;SDS011;8723;51.502;6.918;2023-06-26T08:59:06;8.00;;;4.50;;
17214;SDS011;8723;51.502;6.918;2023-06-26T09:01:35;6.97;;;4.45;;
17214;SDS011;8723;51.502;6.918;2023-06-26T09:04:02;7.25;;;4.40;;
17214;SDS011;8723;51.502;6.918;2023-06-26T09:06:29;7.68;;;4.28;;
17214;SDS011;8723;51.502;6.918;2023-06-26T09:08:56;7.70;;;4.50;;
17214;SDS011;8723;51.502;6.918;2023-06-26T09:11:24;5.80;;;3.95;;
17214;SDS011;8723;51.502;6.918;2023-06-26T09:13:51;9.10;;;4.65;;
17214;SDS011;8723;51.502;6.918;2023-06-26T09:16:18;5.82;;;4.60;;
17214;SDS011;8723;51.502;6.918;2023-06-26T09:18:52;7.35;;;4.63;;
17214;SDS011;8723;51.502;6.918;2023-06-26T09:21:19;7.85;;;4.18;;
17214;SDS011;8723;51.502;6.918;2023-06-26T09:23:48;6.38;;;4.22;;
17214;SDS011;8723;51.502;6.918;2023-06-26T09:26:16;6.32;;;4.43;;
17214;SDS011;8723;51.502;6.918;2023-06-26T09:28:44;6.30;;;3.80;;
17214;SDS011;8723;51.502;6.918;2023-06-26T09:31:11;6.30;;;3.80;;
17214;SDS011;8723;51.502;6.918;2023-06-26T09:33:39;5.57;;;3.80;;
17214;SDS011;8723;51.502;6.918;2023-06-26T09:36:08;8.82;;;4.28;;
17214;SDS011;8723;51.502;6.918;2023-06-26T09:38:35;6.75;;;4.20;;
17214;SDS011;8723;51.502;6.918;2023-06-26T09:41:02;6.25;;;4.05;;
17214;SDS011;8723;51.502;6.918;2023-06-26T09:43:29;5.87;;;4.07;;
17214;SDS011;8723;51.502;6.918;2023-06-26T09:45:58;6.70;;;4.10;;
17214;SDS011;8723;51.502;6.918;2023-06-26T09:48:27;8.00;;;4.00;;
17214;SDS011;8723;51.502;6.918;2023-06-26T09:50:53;5.57;;;3.90;;
17214;SDS011;8723;51.502;6.918;2023-06-26T09:53:21;5.15;;;3.60;;
17214;SDS011;8723;51.502;6.918;2023-06-26T09:55:48;6.82;;;3.80;;
17214;SDS011;8723;51.502;6.918;2023-06-26T09:58:15;7.18;;;3.88;;
17214;SDS011;8723;51.502;6.918;2023-06-26T10:00:43;6.70;;;3.60;;
17214;SDS011;8723;51.502;6.918;2023-06-26T10:03:11;6.70;;;3.70;;
17214;SDS011;8723;51.502;6.918;2023-06-26T10:05:38;5.38;;;3.50;;
17214;SDS011;8723;51.502;6.918;2023-06-26T10:08:06;5.53;;;3.45;;
17214;SDS011;8723;51.502;6.918;2023-06-26T10:10:33;4.30;;;3.60;;
17214;SDS011;8723;51.502;6.918;2023-06-26T10:13:04;5.25;;;3.40;;
17214;SDS011;8723;51.502;6.918;2023-06-26T10:15:37;5.30;;;3.30;;
17214;SDS011;8723;51.502;6.918;2023-06-26T10:18:06;4.30;;;3.20;;
17214;SDS011;8723;51.502;6.918;2023-06-26T10:20:34;6.32;;;3.40;;
17214;SDS011;8723;51.502;6.918;2023-06-26T10:23:01;4.65;;;3.03;;
17214;SDS011;8723;51.502;6.918;2023-06-26T10:25:30;5.85;;;3.20;;
17214;SDS011;8723;51.502;6.918;2023-06-26T10:27:58;4.38;;;2.90;;
17214;SDS011;8723;51.502;6.918;2023-06-26T10:30:29;4.50;;;3.17;;
17214;SDS011;8723;51.502;6.918;2023-06-26T10:32:59;4.47;;;2.97;;
17214;SDS011;8723;51.502;6.918;2023-06-26T10:35:27;5.10;;;3.22;;
17214;SDS011;8723;51.502;6.918;2023-06-26T10:38:01;4.47;;;3.08;;
17214;SDS011;8723;51.502;6.918;2023-06-26T10:40:33;5.07;;;2.90;;
17214;SDS011;8723;51.502;6.918;2023-06-26T10:43:07;5.82;;;3.30;;
17214;SDS011;8723;51.502;6.918;2023-06-26T10:45:34;5.90;;;3.00;;
17214;SDS011;8723;51.502;6.918;2023-06-26T10:48:02;4.13;;;2.83;;
17214;SDS011;8723;51.502;6.918;2023-06-26T10:50:31;4.13;;;3.00;;
17214;SDS011;8723;51.502;6.918;2023-06-26T10:53:11;3.67;;;2.85;;
17214;SDS011;8723;51.502;6.918;2023-06-26T10:55:44;4.22;;;2.75;;
17214;SDS011;8723;51.502;6.918;2023-06-26T10:58:28;3.67;;;3.10;;
17214;SDS011;8723;51.502;6.918;2023-06-26T11:01:18;4.57;;;3.00;;
17214;SDS011;8723;51.502;6.918;2023-06-26T11:03:47;3.08;;;2.67;;
17214;SDS011;8723;51.502;6.918;2023-06-26T11:06:16;3.70;;;2.60;;
17214;SDS011;8723;51.502;6.918;2023-06-26T11:08:46;4.45;;;2.30;;
17214;SDS011;8723;51.502;6.918;2023-06-26T11:11:14;3.38;;;2.30;;
17214;SDS011;8723;51.502;6.918;2023-06-26T11:13:41;3.13;;;2.00;;
17214;SDS011;8723;51.502;6.918;2023-06-26T11:16:08;2.97;;;1.83;;
17214;SDS011;8723;51.502;6.918;2023-06-26T11:18:37;2.30;;;1.65;;
17214;SDS011;8723;51.502;6.918;2023-06-26T11:21:05;2.30;;;1.80;;
17214;SDS011;8723;51.502;6.918;2023-06-26T11:23:32;2.85;;;1.67;;
17214;SDS011;8723;51.502;6.918;2023-06-26T11:26:18;2.65;;;1.80;;
17214;SDS011;8723;51.502;6.918;2023-06-26T11:28:47;2.78;;;1.60;;
17214;SDS011;8723;51.502;6.918;2023-06-26T11:31:24;2.25;;;1.70;;
17214;SDS011;8723;51.502;6.918;2023-06-26T11:33:52;3.37;;;1.77;;
17214;SDS011;8723;51.502;6.918;2023-06-26T11:36:19;2.45;;;1.60;;
17214;SDS011;8723;51.502;6.918;2023-06-26T11:38:52;2.92;;;1.60;;
17214;SDS011;8723;51.502;6.918;2023-06-26T11:41:21;2.35;;;1.70;;
17214;SDS011;8723;51.502;6.918;2023-06-26T11:43:48;3.85;;;1.70;;
17214;SDS011;8723;51.502;6.918;2023-06-26T11:46:17;2.70;;;1.53;;
17214;SDS011;8723;51.502;6.918;2023-06-26T11:48:44;2.53;;;1.70;;
17214;SDS011;8723;51.502;6.918;2023-06-26T11:51:12;2.20;;;1.63;;
17214;SDS011;8723;51.502;6.918;2023-06-26T11:53:39;2.53;;;1.40;;
17214;SDS011;8723;51.502;6.918;2023-06-26T11:56:07;2.53;;;1.20;;
17214;SDS011;8723;51.502;6.918;2023-06-26T11:58:36;2.10;;;1.30;;
17214;SDS011;8723;51.502;6.918;2023-06-26T12:01:18;6.00;;;1.27;;
17214;SDS011;8723;51.502;6.918;2023-06-26T12:03:46;3.03;;;1.43;;
17214;SDS011;8723;51.502;6.918;2023-06-26T12:06:13;3.40;;;1.70;;
17214;SDS011;8723;51.502;6.918;2023-06-26T12:08:40;5.70;;;1.60;;
17214;SDS011;8723;51.502;6.918;2023-06-26T12:11:08;2.95;;;1.55;;
17214;SDS011;8723;51.502;6.918;2023-06-26T12:13:36;3.88;;;1.50;;
17214;SDS011;8723;51.502;6.918;2023-06-26T12:16:03;2.20;;;1.38;;
17214;SDS011;8723;51.502;6.918;2023-06-26T12:18:33;3.00;;;1.27;;
17214;SDS011;8723;51.502;6.918;2023-06-26T12:21:00;2.20;;;1.10;;
17214;SDS011;8723;51.502;6.918;2023-06-26T12:23:32;5.28;;;1.35;;
17214;SDS011;8723;51.502;6.918;2023-06-26T12:25:59;1.85;;;1.13;;
17214;SDS011;8723;51.502;6.918;2023-06-26T12:28:45;2.65;;;1.45;;
17214;SDS011;8723;51.502;6.918;2023-06-26T12:31:13;2.58;;;1.30;;
17214;SDS011;8723;51.502;6.918;2023-06-26T12:33:40;3.15;;;1.42;;
17214;SDS011;8723;51.502;6.918;2023-06-26T12:36:10;2.17;;;1.00;;
17214;SDS011;8723;51.502;6.918;2023-06-26T12:38:37;2.58;;;1.30;;
17214;SDS011;8723;51.502;6.918;2023-06-26T12:41:04;1.80;;;1.10;;
17214;SDS011;8723;51.502;6.918;2023-06-26T12:43:31;2.58;;;1.40;;
17214;SDS011;8723;51.502;6.918;2023-06-26T12:46:00;2.13;;;1.10;;
17214;SDS011;8723;51.502;6.918;2023-06-26T12:48:36;3.45;;;1.33;;
17214;SDS011;8723;51.502;6.918;2023-06-26T12:51:08;2.53;;;1.05;;
17214;SDS011;8723;51.502;6.918;2023-06-26T12:53:38;1.67;;;1.00;;
17214;SDS011;8723;51.502;6.918;2023-06-26T12:56:05;4.77;;;1.20;;
17214;SDS011;8723;51.502;6.918;2023-06-26T12:58:33;2.03;;;1.00;;
17214;SDS011;8723;51.502;6.918;2023-06-26T13:01:02;1.77;;;0.90;;
17214;SDS011;8723;51.502;6.918;2023-06-26T13:03:30;2.10;;;1.17;;
17214;SDS011;8723;51.502;6.918;2023-06-26T13:05:57;1.20;;;1.10;;
17214;SDS011;8723;51.502;6.918;2023-06-26T13:08:24;4.63;;;1.10;;
17214;SDS011;8723;51.502;6.918;2023-06-26T13:10:51;3.53;;;1.10;;
17214;SDS011;8723;51.502;6.918;2023-06-26T13:13:17;1.92;;;1.00;;
17214;SDS011;8723;51.502;6.918;2023-06-26T13:15:44;1.17;;;0.97;;
17214;SDS011;8723;51.502;6.918;2023-06-26T13:18:12;0.93;;;0.90;;
17214;SDS011;8723;51.502;6.918;2023-06-26T13:20:39;1.30;;;0.85;;
17214;SDS011;8723;51.502;6.918;2023-06-26T13:23:06;1.85;;;1.02;;
17214;SDS011;8723;51.502;6.918;2023-06-26T13:25:33;1.35;;;1.02;;
17214;SDS011;8723;51.502;6.918;2023-06-26T13:28:00;2.25;;;1.10;;
17214;SDS011;8723;51.502;6.918;2023-06-26T13:30:27;2.83;;;1.20;;
17214;SDS011;8723;51.502;6.918;2023-06-26T13:32:54;1.27;;;0.98;;
17214;SDS011;8723;51.502;6.918;2023-06-26T13:35:22;1.10;;;0.98;;
17214;SDS011;8723;51.502;6.918;2023-06-26T13:37:49;2.47;;;0.93;;
17214;SDS011;8723;51.502;6.918;2023-06-26T13:40:16;2.28;;;1.20;;
17214;SDS011;8723;51.502;6.918;2023-06-26T13:42:43;1.80;;;1.10;;
17214;SDS011;8723;51.502;6.918;2023-06-26T13:45:10;3.88;;;1.08;;
17214;SDS011;8723;51.502;6.918;2023-06-26T13:47:37;3.47;;;1.30;;
17214;SDS011;8723;51.502;6.918;2023-06-26T13:50:06;6.97;;;1.85;;
17214;SDS011;8723;51.502;6.918;2023-06-26T13:52:35;1.60;;;1.10;;
17214;SDS011;8723;51.502;6.918;2023-06-26T13:55:02;1.83;;;1.00;;
17214;SDS011;8723;51.502;6.918;2023-06-26T13:57:30;1.65;;;1.20;;
17214;SDS011;8723;51.502;6.918;2023-06-26T13:59:57;3.80;;;1.37;;
17214;SDS011;8723;51.502;6.918;2023-06-26T14:02:24;2.20;;;1.17;;
17214;SDS011;8723;51.502;6.918;2023-06-26T14:04:51;1.50;;;1.02;;
17214;SDS011;8723;51.502;6.918;2023-06-26T14:07:18;3.67;;;1.10;;
17214;SDS011;8723;51.502;6.918;2023-06-26T14:09:46;1.93;;;1.00;;
17214;SDS011;8723;51.502;6.918;2023-06-26T14:12:13;1.70;;;1.00;;
17214;SDS011;8723;51.502;6.918;2023-06-26T14:14:40;1.45;;;0.98;;
17214;SDS011;8723;51.502;6.918;2023-06-26T14:17:07;1.48;;;0.95;;
17214;SDS011;8723;51.502;6.918;2023-06-26T14:19:35;1.67;;;1.02;;
17214;SDS011;8723;51.502;6.918;2023-06-26T14:22:02;2.28;;;1.10;;
17214;SDS011;8723;51.502;6.918;2023-06-26T14:24:29;2.25;;;1.13;;
17214;SDS011;8723;51.502;6.918;2023-06-26T14:26:57;4.72;;;1.10;;
17214;SDS011;8723;51.502;6.918;2023-06-26T14:29:24;1.65;;;1.10;;
17214;SDS011;8723;51.502;6.918;2023-06-26T14:31:51;1.85;;;1.23;;
17214;SDS011;8723;51.502;6.918;2023-06-26T14:34:18;2.70;;;1.13;;
17214;SDS011;8723;51.502;6.918;2023-06-26T14:36:44;3.40;;;1.10;;
17214;SDS011;8723;51.502;6.918;2023-06-26T14:39:11;1.33;;;0.77;;
17214;SDS011;8723;51.502;6.918;2023-06-26T14:41:38;1.30;;;1.00;;
17214;SDS011;8723;51.502;6.918;2023-06-26T14:44:06;1.10;;;1.00;;
17214;SDS011;8723;51.502;6.918;2023-06-26T14:46:34;2.13;;;1.10;;
17214;SDS011;8723;51.502;6.918;2023-06-26T14:49:01;2.23;;;1.13;;
17214;SDS011;8723;51.502;6.918;2023-06-26T14:51:28;1.80;;;1.03;;
17214;SDS011;8723;51.502;6.918;2023-06-26T14:53:55;1.65;;;0.90;;
17214;SDS011;8723;51.502;6.918;2023-06-26T14:56:22;1.92;;;1.10;;
17214;SDS011;8723;51.502;6.918;2023-06-26T14:58:49;2.50;;;1.10;;
17214;SDS011;8723;51.502;6.918;2023-06-26T15:01:18;1.02;;;0.77;;
17214;SDS011;8723;51.502;6.918;2023-06-26T15:03:45;1.70;;;1.20;;
17214;SDS011;8723;51.502;6.918;2023-06-26T15:06:12;1.60;;;1.10;;